sensor_id;sensor_type;location;lat;lon;timestamp;pressure;altitude;pressure_sealevel;temperature;humidity
55757;BME280;41676;44.610;44.078;2024-03-08T00:04:10;100637.69;;;0.39;100.00
55757;BME280;41676;44.610;44.078;2024-03-08T00:09:14;100647.88;;;0.43;100.00
55757;BME280;41676;44.610;44.078;2024-03-08T00:14:16;100646.78;;;0.33;100.00
55757;BME280;41676;44.610;44.078;2024-03-08T00:19:17;100639.53;;;0.24;100.00
55757;BME280;41676;44.610;44.078;2024-03-08T00:24:17;100636.34;;;0.19;100.00
55757;BME280;41676;44.610;44.078;2024-03-08T00:29:18;100627.75;;;0.17;100.00
55757;BME280;41676;44.610;44.078;2024-03-08T00:34:19;100628.31;;;0.08;100.00
55757;BME280;41676;44.610;44.078;2024-03-08T00:39:20;100624.03;;;-0.08;100.00
55757;BME280;41676;44.610;44.078;2024-03-08T00:44:21;100619.38;;;-0.17;100.00
55757;BME280;41676;44.610;44.078;2024-03-08T00:49:22;100646.97;;;-0.13;100.00
55757;BME280;41676;44.610;44.078;2024-03-08T00:54:23;100631.84;;;-0.22;100.00
55757;BME280;41676;44.610;44.078;2024-03-08T00:59:24;100602.34;;;-0.53;100.00
55757;BME280;41676;44.610;44.078;2024-03-08T01:04:25;100649.38;;;-0.24;100.00
55757;BME280;41676;44.610;44.078;2024-03-08T01:09:26;100650.84;;;-0.34;100.00
55757;BME280;41676;44.610;44.078;2024-03-08T01:14:27;100640.38;;;-0.49;100.00
55757;BME280;41676;44.610;44.078;2024-03-08T01:19:30;100640.41;;;-0.34;100.00
55757;BME280;41676;44.610;44.078;2024-03-08T01:24:32;100644.44;;;-0.29;100.00
55757;BME280;41676;44.610;44.078;2024-03-08T01:29:35;100589.63;;;-0.73;100.00
55757;BME280;41676;44.610;44.078;2024-03-08T01:34:36;100639.72;;;-0.52;100.00
55757;BME280;41676;44.610;44.078;2024-03-08T01:39:37;100644.00;;;-0.65;100.00
55757;BME280;41676;44.610;44.078;2024-03-08T01:44:38;100635.09;;;-0.77;100.00
55757;BME280;41676;44.610;44.078;2024-03-08T01:49:39;100642.41;;;-0.68;100.00
55757;BME280;41676;44.610;44.078;2024-03-08T01:54:41;100648.94;;;-0.61;100.00
55757;BME280;41676;44.610;44.078;2024-03-08T01:59:42;100656.41;;;-0.55;100.00
55757;BME280;41676;44.610;44.078;2024-03-08T02:04:44;100658.09;;;-0.54;100.00
55757;BME280;41676;44.610;44.078;2024-03-08T02:09:45;100665.66;;;-0.49;100.00
55757;BME280;41676;44.610;44.078;2024-03-08T02:14:46;100661.78;;;-0.58;100.00
55757;BME280;41676;44.610;44.078;2024-03-08T02:19:47;100660.56;;;-0.66;100.00
55757;BME280;41676;44.610;44.078;2024-03-08T02:24:48;100652.25;;;-0.73;100.00
55757;BME280;41676;44.610;44.078;2024-03-08T02:29:49;100648.84;;;-0.59;100.00
55757;BME280;41676;44.610;44.078;2024-03-08T02:34:50;100618.69;;;-0.79;100.00
55757;BME280;41676;44.610;44.078;2024-03-08T02:39:51;100633.75;;;-0.84;100.00
55757;BME280;41676;44.610;44.078;2024-03-08T02:44:52;100645.72;;;-0.80;100.00
55757;BME280;41676;44.610;44.078;2024-03-08T02:49:53;100633.81;;;-1.00;100.00
55757;BME280;41676;44.610;44.078;2024-03-08T02:54:53;100631.78;;;-1.11;100.00
55757;BME280;41676;44.610;44.078;2024-03-08T02:59:54;100620.63;;;-1.13;100.00
55757;BME280;41676;44.610;44.078;2024-03-08T03:04:56;100622.88;;;-1.07;100.00
55757;BME280;41676;44.610;44.078;2024-03-08T03:09:56;100657.41;;;-0.87;100.00
55757;BME280;41676;44.610;44.078;2024-03-08T03:14:57;100603.56;;;-1.19;100.00
55757;BME280;41676;44.610;44.078;2024-03-08T03:19:58;100652.78;;;-0.82;100.00
55757;BME280;41676;44.610;44.078;2024-03-08T03:24:59;100646.59;;;-0.96;100.00
55757;BME280;41676;44.610;44.078;2024-03-08T03:30:04;100648.84;;;-0.89;100.00
55757;BME280;41676;44.610;44.078;2024-03-08T03:35:21;100649.75;;;-0.90;100.00
55757;BME280;41676;44.610;44.078;2024-03-08T03:40:22;100637.56;;;-0.90;100.00
55757;BME280;41676;44.610;44.078;2024-03-08T03:45:25;100628.34;;;-1.11;100.00
55757;BME280;41676;44.610;44.078;2024-03-08T03:50:26;100627.69;;;-1.15;100.00
55757;BME280;41676;44.610;44.078;2024-03-08T03:55:27;100629.63;;;-1.19;100.00
55757;BME280;41676;44.610;44.078;2024-03-08T04:00:28;100484.47;;;-2.10;100.00
55757;BME280;41676;44.610;44.078;2024-03-08T04:05:29;100633.22;;;-1.05;100.00
55757;BME280;41676;44.610;44.078;2024-03-08T04:10:31;100637.16;;;-0.98;100.00
55757;BME280;41676;44.610;44.078;2024-03-08T04:15:32;100650.88;;;-0.95;100.00
55757;BME280;41676;44.610;44.078;2024-03-08T04:20:32;100648.50;;;-0.99;100.00
55757;BME280;41676;44.610;44.078;2024-03-08T04:25:33;100635.34;;;-1.12;100.00
55757;BME280;41676;44.610;44.078;2024-03-08T04:30:34;100644.72;;;-0.94;100.00
55757;BME280;41676;44.610;44.078;2024-03-08T04:35:37;100654.91;;;-0.89;100.00
55757;BME280;41676;44.610;44.078;2024-03-08T04:40:38;100661.38;;;-0.80;100.00
55757;BME280;41676;44.610;44.078;2024-03-08T04:45:38;100654.69;;;-0.70;100.00
55757;BME280;41676;44.610;44.078;2024-03-08T04:50:39;100670.50;;;-0.73;100.00
55757;BME280;41676;44.610;44.078;2024-03-08T04:55:40;100674.22;;;-0.77;100.00
55757;BME280;41676;44.610;44.078;2024-03-08T05:00:41;100671.50;;;-1.06;100.00
55757;BME280;41676;44.610;44.078;2024-03-08T05:05:42;100595.38;;;-1.58;100.00
55757;BME280;41676;44.610;44.078;2024-03-08T05:10:43;100671.88;;;-0.82;100.00
55757;BME280;41676;44.610;44.078;2024-03-08T05:15:43;100674.31;;;-0.79;100.00
55757;BME280;41676;44.610;44.078;2024-03-08T05:20:44;100680.34;;;-0.62;100.00
55757;BME280;41676;44.610;44.078;2024-03-08T05:25:46;100669.25;;;-0.82;100.00
55757;BME280;41676;44.610;44.078;2024-03-08T05:30:49;100664.41;;;-0.58;100.00
55757;BME280;41676;44.610;44.078;2024-03-08T05:35:50;100677.91;;;-0.81;100.00
55757;BME280;41676;44.610;44.078;2024-03-08T05:40:52;100676.97;;;-0.64;100.00
55757;BME280;41676;44.610;44.078;2024-03-08T05:45:53;100632.69;;;-0.80;100.00
55757;BME280;41676;44.610;44.078;2024-03-08T05:50:54;100665.66;;;-0.49;100.00
55757;BME280;41676;44.610;44.078;2024-03-08T05:55:54;100668.38;;;-0.36;100.00
55757;BME280;41676;44.610;44.078;2024-03-08T06:00:56;100658.78;;;-0.21;100.00
55757;BME280;41676;44.610;44.078;2024-03-08T06:05:56;100669.00;;;-0.03;100.00
55757;BME280;41676;44.610;44.078;2024-03-08T06:10:57;100662.34;;;-0.22;100.00
55757;BME280;41676;44.610;44.078;2024-03-08T06:16:00;100650.31;;;-0.25;100.00
55757;BME280;41676;44.610;44.078;2024-03-08T06:21:01;100666.56;;;-0.20;100.00
55757;BME280;41676;44.610;44.078;2024-03-08T06:26:02;100661.16;;;-0.17;100.00
55757;BME280;41676;44.610;44.078;2024-03-08T06:31:03;100656.75;;;-0.16;100.00
55757;BME280;41676;44.610;44.078;2024-03-08T06:36:05;100660.03;;;0.02;100.00
55757;BME280;41676;44.610;44.078;2024-03-08T06:41:06;100655.16;;;-0.19;100.00
55757;BME280;41676;44.610;44.078;2024-03-08T06:46:07;100613.91;;;-0.42;100.00
55757;BME280;41676;44.610;44.078;2024-03-08T06:51:07;100653.22;;;0.13;100.00
55757;BME280;41676;44.610;44.078;2024-03-08T06:56:08;100663.38;;;0.18;100.00
55757;BME280;41676;44.610;44.078;2024-03-08T07:01:09;100666.09;;;0.31;100.00
55757;BME280;41676;44.610;44.078;2024-03-08T07:06:14;100662.63;;;0.44;100.00
55757;BME280;41676;44.610;44.078;2024-03-08T07:11:15;100613.75;;;0.18;100.00
55757;BME280;41676;44.610;44.078;2024-03-08T07:16:18;100600.44;;;-0.20;100.00
55757;BME280;41676;44.610;44.078;2024-03-08T07:21:19;100608.38;;;-0.08;100.00
55757;BME280;41676;44.610;44.078;2024-03-08T07:26:20;100605.19;;;0.16;100.00
55757;BME280;41676;44.610;44.078;2024-03-08T07:31:21;100642.72;;;0.56;100.00
55757;BME280;41676;44.610;44.078;2024-03-08T07:36:32;100655.91;;;0.55;100.00
55757;BME280;41676;44.610;44.078;2024-03-08T07:41:34;100649.72;;;0.56;100.00
55757;BME280;41676;44.610;44.078;2024-03-08T07:46:36;100655.41;;;0.62;100.00
55757;BME280;41676;44.610;44.078;2024-03-08T07:51:38;100648.44;;;0.49;100.00
55757;BME280;41676;44.610;44.078;2024-03-08T07:56:38;100606.91;;;0.30;100.00
55757;BME280;41676;44.610;44.078;2024-03-08T08:01:39;100640.03;;;0.43;100.00
55757;BME280;41676;44.610;44.078;2024-03-08T08:06:40;100640.38;;;0.66;100.00
55757;BME280;41676;44.610;44.078;2024-03-08T08:11:44;100632.28;;;0.83;100.00
55757;BME280;41676;44.610;44.078;2024-03-08T08:16:44;100591.88;;;0.75;100.00
55757;BME280;41676;44.610;44.078;2024-03-08T08:21:45;100620.00;;;0.98;100.00
55757;BME280;41676;44.610;44.078;2024-03-08T08:26:46;100643.47;;;1.12;100.00
55757;BME280;41676;44.610;44.078;2024-03-08T08:31:47;100656.81;;;1.22;100.00
55757;BME280;41676;44.610;44.078;2024-03-08T08:36:48;100552.38;;;0.79;100.00
55757;BME280;41676;44.610;44.078;2024-03-08T08:41:49;100581.91;;;0.94;100.00
55757;BME280;41676;44.610;44.078;2024-03-08T08:46:49;100639.66;;;1.31;100.00
55757;BME280;41676;44.610;44.078;2024-03-08T08:51:50;100633.59;;;1.30;100.00
55757;BME280;41676;44.610;44.078;2024-03-08T08:56:51;100635.72;;;1.38;100.00
55757;BME280;41676;44.610;44.078;2024-03-08T09:01:52;100635.81;;;1.49;100.00
55757;BME280;41676;44.610;44.078;2024-03-08T09:06:54;100631.44;;;1.63;100.00
55757;BME280;41676;44.610;44.078;2024-03-08T09:11:55;100631.56;;;1.87;100.00
55757;BME280;41676;44.610;44.078;2024-03-08T09:16:56;100599.38;;;1.85;98.13
55757;BME280;41676;44.610;44.078;2024-03-08T09:21:57;100606.53;;;1.82;99.48
55757;BME280;41676;44.610;44.078;2024-03-08T09:26:58;100595.91;;;2.10;100.00
55757;BME280;41676;44.610;44.078;2024-03-08T09:31:59;100600.56;;;2.30;100.00
55757;BME280;41676;44.610;44.078;2024-03-08T09:37:00;100602.06;;;2.58;99.06
55757;BME280;41676;44.610;44.078;2024-03-08T09:42:03;100586.41;;;2.33;97.42
55757;BME280;41676;44.610;44.078;2024-03-08T09:47:06;100597.16;;;2.54;98.64
55757;BME280;41676;44.610;44.078;2024-03-08T09:52:07;100585.75;;;2.79;97.42
55757;BME280;41676;44.610;44.078;2024-03-08T09:57:08;100575.28;;;2.90;98.44
55757;BME280;41676;44.610;44.078;2024-03-08T10:02:14;100579.59;;;2.91;97.97
55757;BME280;41676;44.610;44.078;2024-03-08T10:07:15;100592.94;;;2.88;98.01
55757;BME280;41676;44.610;44.078;2024-03-08T10:12:16;100574.06;;;2.59;97.46
55757;BME280;41676;44.610;44.078;2024-03-08T10:17:19;100561.38;;;2.77;98.05
55757;BME280;41676;44.610;44.078;2024-03-08T10:22:21;100590.13;;;2.78;98.36
55757;BME280;41676;44.610;44.078;2024-03-08T10:27:21;100579.03;;;2.74;98.84
55757;BME280;41676;44.610;44.078;2024-03-08T10:32:22;100584.88;;;2.78;98.85
55757;BME280;41676;44.610;44.078;2024-03-08T10:37:25;100537.34;;;2.59;100.00
55757;BME280;41676;44.610;44.078;2024-03-08T10:42:29;100586.94;;;2.86;99.88
55757;BME280;41676;44.610;44.078;2024-03-08T10:47:32;100579.22;;;2.84;100.00
55757;BME280;41676;44.610;44.078;2024-03-08T10:52:38;100511.88;;;2.48;100.00
55757;BME280;41676;44.610;44.078;2024-03-08T10:57:40;100541.81;;;3.05;100.00
55757;BME280;41676;44.610;44.078;2024-03-08T11:02:45;100529.09;;;3.11;100.00
55757;BME280;41676;44.610;44.078;2024-03-08T11:07:46;100581.91;;;3.64;99.41
55757;BME280;41676;44.610;44.078;2024-03-08T11:12:48;100575.19;;;3.38;99.14
55757;BME280;41676;44.610;44.078;2024-03-08T11:17:49;100548.50;;;3.44;99.13
55757;BME280;41676;44.610;44.078;2024-03-08T11:22:53;100574.53;;;3.81;98.53
55757;BME280;41676;44.610;44.078;2024-03-08T11:28:27;100581.44;;;3.71;97.32
55757;BME280;41676;44.610;44.078;2024-03-08T11:33:28;100539.63;;;3.45;97.38
55757;BME280;41676;44.610;44.078;2024-03-08T11:38:32;100560.31;;;3.72;97.59
55757;BME280;41676;44.610;44.078;2024-03-08T11:43:33;100583.84;;;3.85;97.15
55757;BME280;41676;44.610;44.078;2024-03-08T11:48:36;100588.19;;;3.86;96.48
55757;BME280;41676;44.610;44.078;2024-03-08T11:53:37;100582.78;;;3.87;95.71
55757;BME280;41676;44.610;44.078;2024-03-08T11:58:38;100583.13;;;3.72;96.26
55757;BME280;41676;44.610;44.078;2024-03-08T12:03:40;100584.22;;;3.80;96.77
55757;BME280;41676;44.610;44.078;2024-03-08T12:08:46;100573.81;;;3.79;96.37
55757;BME280;41676;44.610;44.078;2024-03-08T12:13:49;100590.66;;;3.65;95.61
55757;BME280;41676;44.610;44.078;2024-03-08T12:18:54;100576.66;;;3.53;95.73
55757;BME280;41676;44.610;44.078;2024-03-08T12:24:05;100582.53;;;3.57;95.05
55757;BME280;41676;44.610;44.078;2024-03-08T12:29:25;100541.00;;;3.15;95.70
55757;BME280;41676;44.610;44.078;2024-03-08T12:34:27;100558.94;;;3.22;96.42
55757;BME280;41676;44.610;44.078;2024-03-08T12:39:29;100575.41;;;3.24;97.31
55757;BME280;41676;44.610;44.078;2024-03-08T12:44:30;100581.50;;;3.24;97.09
55757;BME280;41676;44.610;44.078;2024-03-08T12:49:31;100584.00;;;3.26;96.62
55757;BME280;41676;44.610;44.078;2024-03-08T12:54:32;100532.88;;;3.07;96.89
55757;BME280;41676;44.610;44.078;2024-03-08T12:59:33;100576.59;;;3.31;97.38
55757;BME280;41676;44.610;44.078;2024-03-08T13:04:34;100555.34;;;3.23;97.18
55757;BME280;41676;44.610;44.078;2024-03-08T13:09:36;100570.06;;;3.36;97.33
55757;BME280;41676;44.610;44.078;2024-03-08T13:14:40;100512.47;;;3.11;97.53
55757;BME280;41676;44.610;44.078;2024-03-08T13:19:41;100517.13;;;3.07;97.72
55757;BME280;41676;44.610;44.078;2024-03-08T13:24:45;100570.44;;;3.43;97.56
55757;BME280;41676;44.610;44.078;2024-03-08T13:29:46;100466.94;;;2.77;97.28
55757;BME280;41676;44.610;44.078;2024-03-08T13:34:48;100513.28;;;3.00;97.65
55757;BME280;41676;44.610;44.078;2024-03-08T13:39:51;100567.06;;;3.30;98.10
55757;BME280;41676;44.610;44.078;2024-03-08T13:44:53;100573.88;;;3.32;98.41
55757;BME280;41676;44.610;44.078;2024-03-08T13:49:54;100574.56;;;3.23;98.45
55757;BME280;41676;44.610;44.078;2024-03-08T13:54:55;100586.88;;;3.34;98.60
55757;BME280;41676;44.610;44.078;2024-03-08T13:59:56;100599.03;;;3.24;99.37
55757;BME280;41676;44.610;44.078;2024-03-08T14:04:57;100600.41;;;3.05;99.91
55757;BME280;41676;44.610;44.078;2024-03-08T14:09:58;100605.16;;;3.00;100.00
55757;BME280;41676;44.610;44.078;2024-03-08T14:14:59;100543.13;;;2.75;100.00
55757;BME280;41676;44.610;44.078;2024-03-08T14:20:00;100602.56;;;3.11;100.00
55757;BME280;41676;44.610;44.078;2024-03-08T14:25:01;100594.81;;;3.10;100.00
55757;BME280;41676;44.610;44.078;2024-03-08T14:30:03;100588.00;;;3.07;100.00
55757;BME280;41676;44.610;44.078;2024-03-08T14:35:05;100598.22;;;2.99;100.00
55757;BME280;41676;44.610;44.078;2024-03-08T14:40:06;100538.19;;;2.59;100.00
55757;BME280;41676;44.610;44.078;2024-03-08T14:45:09;100608.91;;;2.85;100.00
55757;BME280;41676;44.610;44.078;2024-03-08T14:50:10;100607.88;;;2.74;100.00
55757;BME280;41676;44.610;44.078;2024-03-08T14:55:13;100565.72;;;2.41;100.00
55757;BME280;41676;44.610;44.078;2024-03-08T15:00:15;100616.84;;;2.59;100.00
55757;BME280;41676;44.610;44.078;2024-03-08T15:05:34;100620.66;;;2.55;100.00
55757;BME280;41676;44.610;44.078;2024-03-08T15:10:38;100571.94;;;2.27;100.00
55757;BME280;41676;44.610;44.078;2024-03-08T15:15:41;100604.78;;;2.57;100.00
55757;BME280;41676;44.610;44.078;2024-03-08T15:20:43;100537.91;;;2.14;100.00
55757;BME280;41676;44.610;44.078;2024-03-08T15:25:45;100619.88;;;2.66;100.00
55757;BME280;41676;44.610;44.078;2024-03-08T15:30:49;100622.91;;;2.72;100.00
55757;BME280;41676;44.610;44.078;2024-03-08T15:35:55;100606.38;;;2.59;100.00
55757;BME280;41676;44.610;44.078;2024-03-08T15:41:01;100607.63;;;2.66;100.00
55757;BME280;41676;44.610;44.078;2024-03-08T15:46:02;100563.84;;;2.43;100.00
55757;BME280;41676;44.610;44.078;2024-03-08T15:51:05;100596.38;;;2.64;100.00
55757;BME280;41676;44.610;44.078;2024-03-08T15:56:07;100598.78;;;2.67;100.00
55757;BME280;41676;44.610;44.078;2024-03-08T16:01:10;100555.34;;;2.39;100.00
55757;BME280;41676;44.610;44.078;2024-03-08T16:06:14;100598.56;;;2.70;100.00
55757;BME280;41676;44.610;44.078;2024-03-08T16:11:17;100594.38;;;2.68;100.00
55757;BME280;41676;44.610;44.078;2024-03-08T16:16:19;100559.09;;;2.48;100.00
55757;BME280;41676;44.610;44.078;2024-03-08T16:21:20;100547.28;;;2.42;100.00
55757;BME280;41676;44.610;44.078;2024-03-08T16:26:20;100586.63;;;2.66;100.00
55757;BME280;41676;44.610;44.078;2024-03-08T16:31:24;100574.28;;;2.56;100.00
55757;BME280;41676;44.610;44.078;2024-03-08T16:36:25;100594.38;;;2.68;100.00
55757;BME280;41676;44.610;44.078;2024-03-08T16:41:27;100592.50;;;2.70;100.00
55757;BME280;41676;44.610;44.078;2024-03-08T16:46:29;100587.84;;;2.73;100.00
55757;BME280;41676;44.610;44.078;2024-03-08T16:51:33;100585.22;;;2.73;100.00
55757;BME280;41676;44.610;44.078;2024-03-08T16:56:34;100533.81;;;2.47;100.00
55757;BME280;41676;44.610;44.078;2024-03-08T17:01:38;100584.41;;;2.73;100.00
55757;BME280;41676;44.610;44.078;2024-03-08T17:06:39;100582.59;;;2.73;100.00
55757;BME280;41676;44.610;44.078;2024-03-08T17:11:40;100575.56;;;2.74;100.00
55757;BME280;41676;44.610;44.078;2024-03-08T17:16:41;100545.53;;;2.54;100.00
55757;BME280;41676;44.610;44.078;2024-03-08T17:21:42;100512.06;;;2.34;100.00
55757;BME280;41676;44.610;44.078;2024-03-08T17:26:43;100570.66;;;2.69;100.00
55757;BME280;41676;44.610;44.078;2024-03-08T17:31:45;100575.69;;;2.72;100.00
55757;BME280;41676;44.610;44.078;2024-03-08T17:36:48;100537.19;;;2.49;100.00
55757;BME280;41676;44.610;44.078;2024-03-08T17:41:52;100536.59;;;2.57;100.00
55757;BME280;41676;44.610;44.078;2024-03-08T17:46:54;100522.88;;;2.53;100.00
55757;BME280;41676;44.610;44.078;2024-03-08T17:51:55;100570.31;;;2.74;100.00
55757;BME280;41676;44.610;44.078;2024-03-08T17:56:57;100571.38;;;2.71;100.00
55757;BME280;41676;44.610;44.078;2024-03-08T18:02:00;100582.22;;;2.67;100.00
55757;BME280;41676;44.610;44.078;2024-03-08T18:07:01;100551.63;;;2.55;100.00
55757;BME280;41676;44.610;44.078;2024-03-08T18:12:01;100569.72;;;2.70;100.00
55757;BME280;41676;44.610;44.078;2024-03-08T18:17:03;100525.00;;;2.48;100.00
55757;BME280;41676;44.610;44.078;2024-03-08T18:22:06;100558.03;;;2.74;100.00
55757;BME280;41676;44.610;44.078;2024-03-08T18:27:06;100569.78;;;2.82;100.00
55757;BME280;41676;44.610;44.078;2024-03-08T18:32:09;100557.44;;;2.71;100.00
55757;BME280;41676;44.610;44.078;2024-03-08T18:37:10;100559.09;;;2.72;100.00
55757;BME280;41676;44.610;44.078;2024-03-08T18:42:13;100506.41;;;2.51;100.00
55757;BME280;41676;44.610;44.078;2024-03-08T18:47:14;100516.38;;;2.59;100.00
55757;BME280;41676;44.610;44.078;2024-03-08T18:52:14;100552.38;;;2.92;100.00
55757;BME280;41676;44.610;44.078;2024-03-08T18:57:17;100544.41;;;2.93;100.00
55757;BME280;41676;44.610;44.078;2024-03-08T19:02:18;100519.19;;;2.80;100.00
55757;BME280;41676;44.610;44.078;2024-03-08T19:07:22;100518.97;;;2.83;100.00
55757;BME280;41676;44.610;44.078;2024-03-08T19:12:23;100510.72;;;2.76;100.00
55757;BME280;41676;44.610;44.078;2024-03-08T19:17:24;100503.44;;;2.80;100.00
55757;BME280;41676;44.610;44.078;2024-03-08T19:22:25;100511.00;;;2.95;100.00
55757;BME280;41676;44.610;44.078;2024-03-08T19:27:28;100500.59;;;2.83;100.00
55757;BME280;41676;44.610;44.078;2024-03-08T19:32:29;100504.50;;;2.77;100.00
55757;BME280;41676;44.610;44.078;2024-03-08T19:37:30;100491.53;;;2.76;100.00
55757;BME280;41676;44.610;44.078;2024-03-08T19:42:31;100495.94;;;2.86;100.00
55757;BME280;41676;44.610;44.078;2024-03-08T19:47:31;100498.47;;;2.88;100.00
55757;BME280;41676;44.610;44.078;2024-03-08T19:52:32;100503.03;;;2.97;100.00
55757;BME280;41676;44.610;44.078;2024-03-08T19:57:35;100439.44;;;2.47;100.00
55757;BME280;41676;44.610;44.078;2024-03-08T20:02:35;100438.69;;;2.45;100.00
55757;BME280;41676;44.610;44.078;2024-03-08T20:07:36;100492.00;;;2.81;100.00
55757;BME280;41676;44.610;44.078;2024-03-08T20:12:38;100495.13;;;2.86;100.00
55757;BME280;41676;44.610;44.078;2024-03-08T20:17:41;100488.44;;;2.93;100.00
55757;BME280;41676;44.610;44.078;2024-03-08T20:22:43;100486.31;;;2.98;100.00
55757;BME280;41676;44.610;44.078;2024-03-08T20:27:54;100492.66;;;3.07;100.00
55757;BME280;41676;44.610;44.078;2024-03-08T20:33:03;100484.94;;;3.05;100.00
55757;BME280;41676;44.610;44.078;2024-03-08T20:38:04;100474.75;;;3.01;100.00
55757;BME280;41676;44.610;44.078;2024-03-08T20:43:10;100475.09;;;2.96;100.00
55757;BME280;41676;44.610;44.078;2024-03-08T20:48:11;100426.00;;;2.63;100.00
55757;BME280;41676;44.610;44.078;2024-03-08T20:53:14;100471.78;;;2.94;100.00
55757;BME280;41676;44.610;44.078;2024-03-08T20:58:15;100467.47;;;2.93;100.00
55757;BME280;41676;44.610;44.078;2024-03-08T21:03:17;100457.66;;;2.72;100.00
55757;BME280;41676;44.610;44.078;2024-03-08T21:08:19;100464.28;;;2.65;100.00
55757;BME280;41676;44.610;44.078;2024-03-08T21:13:29;100455.75;;;2.50;100.00
55757;BME280;41676;44.610;44.078;2024-03-08T21:18:30;100449.91;;;2.47;100.00
55757;BME280;41676;44.610;44.078;2024-03-08T21:23:31;100411.44;;;2.23;100.00
55757;BME280;41676;44.610;44.078;2024-03-08T21:28:32;100430.34;;;2.40;100.00
55757;BME280;41676;44.610;44.078;2024-03-08T21:33:34;100459.16;;;2.64;100.00
55757;BME280;41676;44.610;44.078;2024-03-08T21:38:36;100410.06;;;2.31;100.00
55757;BME280;41676;44.610;44.078;2024-03-08T21:43:37;100424.00;;;2.31;100.00
55757;BME280;41676;44.610;44.078;2024-03-08T21:48:38;100457.47;;;2.51;100.00
55757;BME280;41676;44.610;44.078;2024-03-08T21:53:39;100466.63;;;2.57;100.00
55757;BME280;41676;44.610;44.078;2024-03-08T21:58:40;100442.56;;;2.52;100.00
55757;BME280;41676;44.610;44.078;2024-03-08T22:03:43;100412.94;;;2.39;100.00
55757;BME280;41676;44.610;44.078;2024-03-08T22:08:43;100420.47;;;2.43;100.00
55757;BME280;41676;44.610;44.078;2024-03-08T22:13:44;100466.69;;;2.68;100.00
55757;BME280;41676;44.610;44.078;2024-03-08T22:18:48;100474.25;;;2.84;100.00
55757;BME280;41676;44.610;44.078;2024-03-08T22:23:49;100474.13;;;2.86;100.00
55757;BME280;41676;44.610;44.078;2024-03-08T22:28:50;100468.38;;;2.81;100.00
55757;BME280;41676;44.610;44.078;2024-03-08T22:33:53;100450.47;;;2.63;100.00
55757;BME280;41676;44.610;44.078;2024-03-08T22:38:55;100403.63;;;2.35;100.00
55757;BME280;41676;44.610;44.078;2024-03-08T22:43:56;100390.47;;;2.23;100.00
55757;BME280;41676;44.610;44.078;2024-03-08T22:48:57;100444.56;;;2.48;100.00
55757;BME280;41676;44.610;44.078;2024-03-08T22:53:57;100442.56;;;2.52;100.00
55757;BME280;41676;44.610;44.078;2024-03-08T22:58:58;100436.25;;;2.55;100.00
55757;BME280;41676;44.610;44.078;2024-03-08T23:04:00;100438.97;;;2.53;100.00
55757;BME280;41676;44.610;44.078;2024-03-08T23:09:02;100434.09;;;2.48;100.00
55757;BME280;41676;44.610;44.078;2024-03-08T23:14:04;100382.28;;;2.28;100.00
55757;BME280;41676;44.610;44.078;2024-03-08T23:19:06;100420.00;;;2.49;100.00
55757;BME280;41676;44.610;44.078;2024-03-08T23:24:08;100421.34;;;2.55;100.00
55757;BME280;41676;44.610;44.078;2024-03-08T23:29:11;100413.47;;;2.55;100.00
55757;BME280;41676;44.610;44.078;2024-03-08T23:34:12;100409.75;;;2.46;100.00
55757;BME280;41676;44.610;44.078;2024-03-08T23:39:13;100416.19;;;2.42;100.00
55757;BME280;41676;44.610;44.078;2024-03-08T23:44:15;100405.06;;;2.27;100.00
55757;BME280;41676;44.610;44.078;2024-03-08T23:49:18;100406.78;;;2.16;100.00
55757;BME280;41676;44.610;44.078;2024-03-08T23:54:18;100394.84;;;2.12;100.00
55757;BME280;41676;44.610;44.078;2024-03-08T23:59:22;100390.66;;;2.09;100.00
